Adamstown, MD (21710)

11:07 PM EDT on June 02, 2015 (GMT -0400)
Village Green Lucketts | | Change Station
CLOSE
Current Station
Personal Weather Station
Location: Leesburg, VA
Elevation: 322 ft
Nearby Weather Stations

Elev 322 ft 39.24 °N, 77.51 °W | Updated 5 minutes ago

Overcast
Overcast
57.3 °F
Feels Like 57.3 °F
N
1.0
Wind Variable Wind from North
Gusts 1.0 mph

Today
High -- | Low -- °F
--% Chance of Precip.
Yesterday
High -- | Low -- °F
Precip. -- in
5:44 AM 8:31 PM
Full, 100% visible
Pressure 30.18 in
Visibility 4.0 miles
Clouds Scattered Clouds 700 ft
Mostly Cloudy 1100 ft
Overcast 1700 ft
Dew Point 56 °F
Humidity 97%
Rainfall 0.43 in
Snow Depth Not available.
UV 0 out of 12
Pollen .40 out of 12
Air Quality Not available.
Flu Activity Sporadic
METAR KFDK 030245Z AUTO 03004KT 4SM BR SCT007 BKN011 OVC017 13/13 A3018 RMK AO2 LTG DSNT W

More Conditions Fewer Conditions

Pressure 30.18 in
Visibility 4.0 miles
Clouds Scattered Clouds 700 ft
Mostly Cloudy 1100 ft
Overcast 1700 ft
Dew Point 56 °F
Humidity 97%
Rainfall 0.43 in
Snow Depth Not available.
UV 0 out of 12
Pollen .40 out of 12
Air Quality Not available.
Flu Activity Sporadic
METAR KFDK 030245Z AUTO 03004KT 4SM BR SCT007 BKN011 OVC017 13/13 A3018 RMK AO2 LTG DSNT W

More Conditions Fewer Conditions

10-Day Weather Forecast

×

Almanac

Astronomy

Jun. 02, 2015 Rise Set
Actual Time
Civil Twilight
Nautical Twilight
Astronomical Twilight
Moon
Length of Visible Light
Length of Day
Tomorrow will be .
, % of the Moon is Illuminated

Today's Extremes

State Highs State Lows

Community

WunderPhotos

Upload Photos

1,826,133 photos uploaded!

WunderBlogs® & News

Nearby

Air Quality

  Air Quality AQ Index Pollutant
Not available.

Snow Depth

Station Depth Elevation

Earthquake Activity

City Distance Mag. Time & Date
Minimum magnitude displayed is 2.5.

Coastal Water Temperatures

Place Temperature

Stations

Nearby Weather Stations

Station Location Temp. Windchill Dew Point Humidity Wind Precip. Elev Updated Type